createdAt,value
2023-02-09T00:02:00.894Z,1.19
2023-02-09T00:07:04.335Z,0.75
2023-02-09T00:12:26.382Z,0.63
2023-02-09T00:17:29.603Z,1.17
2023-02-09T00:22:33.650Z,0.63
2023-02-09T00:27:36.740Z,2.12
2023-02-09T00:32:39.846Z,0.09
2023-02-09T00:37:43.055Z,0.51
2023-02-09T00:42:46.163Z,1.31
2023-02-09T00:47:49.472Z,0.64
2023-02-09T00:52:52.952Z,0.90
2023-02-09T00:57:55.896Z,1.15
2023-02-09T01:02:59.106Z,0.59
2023-02-09T01:08:02.315Z,2.10
2023-02-09T01:13:06.212Z,0.34
2023-02-09T01:18:09.349Z,2.40
2023-02-09T01:23:12.461Z,1.79
2023-02-09T01:28:15.547Z,0.88
2023-02-09T01:33:18.573Z,2.47
2023-02-09T01:38:21.485Z,0.56
2023-02-09T01:43:24.484Z,2.25
2023-02-09T01:48:31.097Z,1.49
2023-02-09T01:53:34.502Z,0.77
2023-02-09T01:58:38.423Z,2.00
2023-02-09T02:03:41.759Z,0.28
2023-02-09T02:08:56.723Z,1.81
2023-02-09T02:14:00.045Z,0.30
2023-02-09T02:19:08.985Z,0.63
2023-02-09T02:24:41.370Z,2.73
2023-02-09T02:29:50.318Z,0.24
2023-02-09T02:35:10.832Z,0.42
2023-02-09T02:40:43.763Z,2.53
2023-02-09T02:46:06.058Z,0.05
2023-02-09T02:51:21.353Z,1.53
2023-02-09T02:56:41.800Z,2.99
2023-02-09T03:02:00.287Z,0.26
2023-02-09T03:07:07.419Z,0.97
2023-02-09T03:12:25.657Z,0.96
2023-02-09T03:17:51.946Z,-0.27
2023-02-09T03:23:00.336Z,3.17
2023-02-09T03:28:11.573Z,2.96
2023-02-09T03:33:27.552Z,0.17
2023-02-09T03:38:30.452Z,0.61
2023-02-09T03:43:52.196Z,2.05
2023-02-09T03:48:55.101Z,-0.35
2023-02-09T03:53:58.316Z,0.55
2023-02-09T03:59:01.314Z,0.72
2023-02-09T04:04:04.935Z,-0.33
2023-02-09T04:09:09.391Z,2.45
2023-02-09T04:14:12.381Z,0.65
2023-02-09T04:19:15.957Z,-1.11
2023-02-09T04:24:19.530Z,-0.56
2023-02-09T04:29:22.531Z,1.09
2023-02-09T04:34:25.641Z,-0.82
2023-02-09T04:39:28.951Z,-0.95
2023-02-09T04:44:31.957Z,1.28
2023-02-09T04:49:35.066Z,-0.33
2023-02-09T04:54:38.487Z,1.22
2023-02-09T04:59:41.796Z,0.40
2023-02-09T05:04:44.906Z,0.44
2023-02-09T05:09:47.912Z,1.56
2023-02-09T05:14:50.926Z,-0.23
2023-02-09T05:19:53.926Z,1.99
2023-02-09T05:24:56.932Z,0.53
2023-02-09T05:30:00.177Z,0.79
2023-02-09T05:35:03.156Z,1.81
2023-02-09T05:40:07.254Z,-0.06
2023-02-09T05:45:10.516Z,1.48
2023-02-09T05:50:13.725Z,0.36
2023-02-09T05:55:16.934Z,0.01
2023-02-09T06:00:20.953Z,0.25
2023-02-09T06:05:24.335Z,0.11
2023-02-09T06:10:27.273Z,0.69
2023-02-09T06:15:30.394Z,1.54
2023-02-09T06:20:33.579Z,-0.42
2023-02-09T06:25:40.059Z,-0.33
2023-02-09T06:30:43.031Z,0.22
2023-02-09T06:35:47.003Z,3.46
2023-02-09T06:40:50.323Z,2.42
2023-02-09T06:45:53.539Z,0.89
2023-02-09T06:50:56.740Z,3.50
2023-02-09T06:56:01.587Z,4.19
2023-02-09T07:01:06.420Z,3.91
2023-02-09T07:06:11.956Z,4.39
2023-02-09T07:11:16.827Z,5.04
2023-02-09T07:16:20.029Z,5.60
2023-02-09T07:21:23.280Z,6.04
2023-02-09T07:26:26.305Z,6.69
2023-02-09T07:31:29.552Z,7.48
2023-02-09T07:36:32.708Z,8.17
2023-02-09T07:41:35.917Z,8.63
2023-02-09T07:46:38.937Z,9.25
2023-02-09T07:51:42.240Z,9.94
2023-02-09T07:56:45.237Z,10.58
2023-02-09T08:01:48.434Z,10.97
2023-02-09T08:06:53.400Z,11.20
2023-02-09T08:12:01.272Z,11.57
2023-02-09T08:17:28.700Z,11.52
2023-02-09T08:22:38.743Z,11.11
2023-02-09T08:27:43.528Z,11.16
2023-02-09T08:32:46.637Z,11.08
2023-02-09T08:37:49.640Z,9.38
2023-02-09T08:42:52.747Z,6.86
2023-02-09T08:47:55.862Z,5.15
2023-02-09T08:52:59.790Z,4.16
2023-02-09T08:58:02.894Z,3.52
2023-02-09T09:03:06.488Z,3.11
2023-02-09T09:08:12.594Z,2.94
2023-02-09T09:13:15.504Z,2.85
2023-02-09T09:18:18.919Z,2.77
2023-02-09T09:23:22.124Z,2.71
2023-02-09T09:28:25.248Z,2.64
2023-02-09T09:33:28.245Z,2.51
2023-02-09T09:38:31.251Z,2.45
2023-02-09T09:43:39.833Z,2.61
2023-02-09T09:48:48.836Z,2.76
2023-02-09T09:53:55.319Z,2.92
2023-02-09T09:59:00.000Z,3.10
2023-02-09T10:04:11.921Z,3.22
2023-02-09T10:09:30.364Z,3.28
2023-02-09T10:14:33.362Z,3.22
2023-02-09T10:19:36.462Z,3.11
2023-02-09T10:24:40.914Z,3.09
2023-02-09T10:29:43.906Z,3.18
2023-02-09T10:34:52.678Z,3.28
2023-02-09T10:40:09.965Z,3.28
2023-02-09T10:45:25.793Z,3.31
2023-02-09T10:50:29.625Z,3.40
2023-02-09T10:55:39.791Z,3.38
2023-02-09T11:00:54.058Z,3.36
2023-02-09T11:06:18.474Z,3.32
2023-02-09T11:11:32.763Z,3.25
2023-02-09T11:16:44.873Z,3.13
2023-02-09T11:22:28.845Z,3.06
2023-02-09T11:27:40.034Z,3.07
2023-02-09T11:32:59.421Z,2.99
2023-02-09T11:38:11.132Z,2.59
2023-02-09T11:43:31.239Z,2.14
2023-02-09T11:48:34.246Z,1.77
2023-02-09T11:53:46.262Z,1.44
2023-02-09T11:59:11.591Z,1.26
2023-02-09T12:04:38.646Z,1.23
2023-02-09T12:10:06.756Z,1.34
2023-02-09T12:15:18.676Z,1.49
2023-02-09T12:20:36.940Z,1.71
2023-02-09T12:26:02.786Z,1.91
2023-02-09T12:31:19.711Z,1.99
2023-02-09T12:36:25.683Z,2.02
2023-02-09T12:41:34.635Z,2.05
2023-02-09T12:46:47.070Z,2.03
2023-02-09T12:51:53.040Z,2.09
2023-02-09T12:56:57.132Z,2.19
2023-02-09T13:02:05.806Z,2.33
2023-02-09T13:07:54.484Z,2.57
2023-02-09T13:13:11.941Z,2.85
2023-02-09T13:18:28.664Z,3.01
2023-02-09T13:23:31.668Z,3.02
2023-02-09T13:28:34.674Z,3.00
2023-02-09T13:33:47.794Z,2.85
2023-02-09T13:38:51.345Z,2.63
2023-02-09T13:43:54.242Z,2.40
2023-02-09T13:49:10.868Z,2.09
2023-02-09T13:54:20.522Z,1.82
2023-02-09T13:59:23.638Z,1.71
2023-02-09T14:04:33.885Z,1.56
2023-02-09T14:10:01.462Z,1.44
2023-02-09T14:15:23.623Z,1.38
2023-02-09T14:20:26.754Z,1.34
2023-02-09T14:25:31.494Z,1.27
2023-02-09T14:30:37.562Z,1.20
2023-02-09T14:35:42.188Z,1.05
2023-02-09T14:40:45.166Z,0.89
2023-02-09T14:45:57.895Z,0.73
2023-02-09T14:51:11.422Z,0.57
2023-02-09T14:56:30.360Z,0.39
2023-02-09T15:01:33.335Z,0.21
2023-02-09T15:06:37.029Z,0.03
2023-02-09T15:11:58.462Z,-0.14
2023-02-09T15:17:02.563Z,-0.31
2023-02-09T15:22:07.818Z,0.17
2023-02-09T15:27:28.882Z,1.60
2023-02-09T15:32:32.092Z,0.44
2023-02-09T15:37:37.460Z,-0.17
2023-02-09T15:43:02.474Z,0.61
2023-02-09T15:48:06.194Z,1.50
2023-02-09T15:53:14.942Z,0.37
2023-02-09T15:58:22.544Z,-0.18
2023-02-09T16:03:25.568Z,0.74
2023-02-09T16:08:32.588Z,0.21
2023-02-09T16:13:36.636Z,-0.03
2023-02-09T16:18:39.502Z,1.04
2023-02-09T16:23:43.488Z,0.48
2023-02-09T16:28:47.526Z,-0.06
2023-02-09T16:33:51.516Z,0.83
2023-02-09T16:38:54.493Z,1.29
2023-02-09T16:43:57.991Z,0.32
2023-02-09T16:49:01.634Z,0.41
2023-02-09T16:54:05.154Z,1.16
2023-02-09T16:59:12.919Z,0.40
2023-02-09T17:04:15.988Z,-0.06
2023-02-09T17:09:18.880Z,1.11
2023-02-09T17:14:21.785Z,1.73
2023-02-09T17:19:25.744Z,0.99
2023-02-09T17:24:29.741Z,0.08
2023-02-09T17:29:33.985Z,0.44
2023-02-09T17:34:37.084Z,0.91
2023-02-09T17:39:40.298Z,0.38
2023-02-09T17:44:46.512Z,1.22
2023-02-09T17:49:50.101Z,0.66
2023-02-09T17:54:54.241Z,0.46
2023-02-09T17:59:57.234Z,1.24
2023-02-09T18:05:00.244Z,1.53
2023-02-09T18:10:03.259Z,0.67
2023-02-09T18:15:08.222Z,1.16
2023-02-09T18:20:29.652Z,1.93
2023-02-09T18:25:38.182Z,1.35
2023-02-09T18:30:41.443Z,0.95
2023-02-09T18:35:45.426Z,1.77
2023-02-09T18:40:48.727Z,1.80
2023-02-09T18:45:51.735Z,0.88
2023-02-09T18:50:54.841Z,1.24
2023-02-09T18:55:57.951Z,1.58
2023-02-09T19:01:01.059Z,1.86
2023-02-09T19:06:04.373Z,1.80
2023-02-09T19:11:07.592Z,1.84
2023-02-09T19:16:12.352Z,1.94
2023-02-09T19:21:15.448Z,1.42
2023-02-09T19:26:18.771Z,1.09
2023-02-09T19:31:21.726Z,1.47
2023-02-09T19:36:27.775Z,1.76
2023-02-09T19:41:31.491Z,1.75
2023-02-09T19:46:34.756Z,0.81
2023-02-09T19:51:37.987Z,1.54
2023-02-09T19:56:41.878Z,1.90
2023-02-09T20:01:45.178Z,0.83
2023-02-09T20:06:49.776Z,1.67
2023-02-09T20:11:52.803Z,1.91
2023-02-09T20:16:55.903Z,0.71
2023-02-09T20:21:58.896Z,0.49
2023-02-09T20:27:02.006Z,1.37
2023-02-09T20:32:05.117Z,1.68
2023-02-09T20:37:08.120Z,1.72
2023-02-09T20:42:30.785Z,0.63
2023-02-09T20:47:33.896Z,0.73
2023-02-09T20:52:39.668Z,1.16
2023-02-09T20:57:43.185Z,1.63
2023-02-09T21:02:46.249Z,0.83
2023-02-09T21:07:52.296Z,0.37
2023-02-09T21:12:55.378Z,2.24
2023-02-09T21:17:58.991Z,2.03
2023-02-09T21:23:02.099Z,0.37
2023-02-09T21:28:05.481Z,0.94
2023-02-09T21:33:08.749Z,1.38
2023-02-09T21:38:12.183Z,0.34
2023-02-09T21:43:15.171Z,0.72
2023-02-09T21:48:18.164Z,1.21
2023-02-09T21:53:21.268Z,0.83
2023-02-09T21:58:24.473Z,-0.09
2023-02-09T22:03:27.790Z,0.22
2023-02-09T22:08:31.003Z,0.54
2023-02-09T22:13:34.838Z,0.78
2023-02-09T22:18:37.834Z,1.01
2023-02-09T22:23:40.941Z,1.09
2023-02-09T22:28:44.350Z,0.07
2023-02-09T22:33:48.160Z,0.11
2023-02-09T22:38:51.402Z,0.63
2023-02-09T22:44:12.733Z,1.00
2023-02-09T22:49:20.576Z,-0.17
2023-02-09T22:54:23.660Z,0.50
2023-02-09T22:59:26.773Z,0.87
2023-02-09T23:04:32.133Z,-0.25
2023-02-09T23:09:35.251Z,0.31
2023-02-09T23:14:38.250Z,1.31
2023-02-09T23:19:41.257Z,0.04
2023-02-09T23:24:44.270Z,1.32
2023-02-09T23:29:47.266Z,0.46
2023-02-09T23:34:50.275Z,-0.29
2023-02-09T23:39:53.277Z,0.93
2023-02-09T23:44:56.591Z,0.40
2023-02-09T23:49:59.701Z,-0.27
2023-02-09T23:55:04.153Z,1.12
